Time;durP1;ratioP1;P1;durP2;ratioP2;P2;SDS_P1;SDS_P2;PMS_P1;PMS_P2;Temp;Humidity;BMP_temperature;BMP_pressure;BME280_temperature;BME280_humidity;BME280_pressure;Samples;Min_cycle;Max_cycle;Signal;HPM_P1;HPM_P2
2023/07/01 00:02:39;;;;;;;18.67;4.50;;;15.00;99.90;;;;;;1935000;72;25794;-90
2023/07/01 00:05:28;;;;;;;16.60;3.73;;;14.90;99.90;;;;;;1922060;72;25893;-90
2023/07/01 00:08:17;;;;;;;16.83;3.90;;;14.90;99.90;;;;;;1935252;72;26644;-90
2023/07/01 00:11:07;;;;;;;11.13;3.70;;;14.90;99.90;;;;;;1923119;73;25204;-90
2023/07/01 00:13:56;;;;;;;16.33;3.73;;;14.90;99.90;;;;;;1933910;72;25318;-90
2023/07/01 00:16:45;;;;;;;16.10;3.87;;;14.90;99.90;;;;;;1924360;72;25254;-90
2023/07/01 00:19:34;;;;;;;17.50;4.10;;;14.90;99.90;;;;;;1930120;73;25468;-90
2023/07/01 00:30:01;;;;;;;17.03;4.20;;;14.80;99.90;;;;;;1892662;75;26064;-90
2023/07/01 00:32:53;;;;;;;17.63;3.90;;;14.80;99.90;;;;;;1848900;75;25792;-90
2023/07/01 00:35:49;;;;;;;18.93;4.53;;;14.70;99.90;;;;;;1821101;76;25264;-89
2023/07/01 00:38:48;;;;;;;16.40;4.50;;;14.70;99.90;;;;;;1846317;75;25172;-89
2023/07/01 00:41:38;;;;;;;16.87;4.30;;;14.80;99.90;;;;;;1830663;78;25287;-89
2023/07/01 00:44:27;;;;;;;23.30;4.57;;;14.80;99.90;;;;;;1854878;77;25349;-89
2023/07/01 01:30:37;;;;;;;16.43;4.33;;;14.50;99.90;;;;;;1941544;72;27006;-90
2023/07/01 01:33:28;;;;;;;22.20;4.70;;;14.60;99.90;;;;;;1933443;72;25239;-90
2023/07/01 01:36:23;;;;;;;19.43;4.23;;;14.50;99.90;;;;;;1905975;72;25175;-90
2023/07/01 01:39:18;;;;;;;24.40;4.63;;;14.60;99.90;;;;;;1921192;73;25540;-90
2023/07/01 01:42:13;;;;;;;26.17;4.73;;;14.60;99.90;;;;;;1931981;73;25273;-90
2023/07/01 01:45:07;;;;;;;17.37;4.53;;;14.60;99.90;;;;;;1910302;73;25163;-90
2023/07/01 01:47:57;;;;;;;15.53;4.37;;;14.60;99.90;;;;;;1924023;73;25145;-90
2023/07/01 01:54:07;;;;;;;14.97;5.00;;;14.50;99.90;;;;;;1942965;72;27630;-90
2023/07/01 02:27:59;;;;;;;23.97;4.87;;;14.60;99.90;;;;;;1947670;72;26621;-90
2023/07/01 02:30:48;;;;;;;15.97;4.43;;;14.60;99.90;;;;;;1933255;73;25792;-90
2023/07/01 02:33:38;;;;;;;19.93;4.43;;;14.60;99.90;;;;;;1916754;73;25542;-90
2023/07/01 02:36:27;;;;;;;16.10;4.43;;;14.60;99.90;;;;;;1911677;72;25870;-90
2023/07/01 02:39:16;;;;;;;14.47;4.50;;;14.60;99.90;;;;;;1917781;72;25227;-90
2023/07/01 02:42:06;;;;;;;16.83;4.27;;;14.60;99.90;;;;;;1923327;73;26108;-90
2023/07/01 02:44:55;;;;;;;21.43;4.40;;;14.60;99.90;;;;;;1895652;73;25238;-90
2023/07/01 02:47:44;;;;;;;20.13;4.27;;;14.60;99.90;;;;;;1908878;73;26383;-90
2023/07/01 02:50:33;;;;;;;12.50;4.43;;;14.60;99.90;;;;;;1937563;74;25235;-90
2023/07/01 02:53:29;;;;;;;20.27;4.33;;;14.70;99.90;;;;;;1901678;73;25308;-90
2023/07/01 03:09:45;;;;;;;16.90;4.40;;;14.70;99.90;;;;;;1878257;73;27203;-90
2023/07/01 03:59:19;;;;;;;15.47;4.23;;;16.70;99.90;;;;;;1951987;72;27139;-90
2023/07/01 04:05:59;;;;;;;18.23;3.83;;;15.90;99.90;;;;;;2006028;70;25213;-90
2023/07/01 04:08:54;;;;;;;18.40;3.70;;;15.70;99.90;;;;;;2012723;70;25829;-90
2023/07/01 04:12:11;;;;;;;14.63;4.07;;;15.70;99.90;;;;;;2009103;70;25257;-91
2023/07/01 04:15:10;;;;;;;17.10;3.87;;;15.60;99.90;;;;;;1994311;70;25217;-91
2023/07/01 04:22:10;;;;;;;18.03;3.20;;;16.00;99.90;;;;;;2017599;70;25740;-91
2023/07/01 04:25:55;;;;;;;19.47;3.27;;;16.30;99.90;;;;;;2016807;70;25256;-91
2023/07/01 04:29:20;;;;;;;13.93;3.53;;;16.50;99.90;;;;;;2017596;70;25241;-90
2023/07/01 04:32:52;;;;;;;17.70;4.07;;;16.90;99.90;;;;;;2011829;70;25168;-91
2023/07/01 04:39:43;;;;;;;10.03;3.23;;;17.00;99.90;;;;;;2016650;70;25226;-91
2023/07/01 04:43:02;;;;;;;12.73;3.60;;;17.00;99.90;;;;;;2023008;70;25330;-91
2023/07/01 04:46:34;;;;;;;17.03;3.70;;;17.10;99.90;;;;;;1943429;72;25258;-91
2023/07/01 04:56:47;;;;;;;15.00;3.20;;;17.00;99.90;;;;;;1950804;72;26545;-90
2023/07/01 05:22:06;;;;;;;11.90;3.13;;;17.10;99.90;;;;;;1916445;73;29652;-92
2023/07/01 06:19:34;;;;;;;11.43;3.10;;;17.80;99.90;;;;;;1869857;73;26952;-91
2023/07/01 07:02:58;;;;;;;17.07;3.27;;;18.70;99.90;;;;;;1865775;76;27169;-90
2023/07/01 07:08:33;;;;;;;10.30;3.33;;;18.50;99.90;;;;;;1945603;71;26972;-90
2023/07/01 08:19:41;;;;;;;10.67;2.50;;;19.30;99.90;;;;;;1934455;72;27616;-90
2023/07/01 10:33:56;;;;;;;6.27;2.03;;;18.50;99.90;;;;;;2016238;69;27647;-90
2023/07/01 10:37:14;;;;;;;11.37;2.40;;;18.50;99.90;;;;;;1985113;71;25342;-90
2023/07/01 10:40:17;;;;;;;5.63;2.20;;;18.60;99.90;;;;;;1987768;71;25209;-91
2023/07/01 10:43:29;;;;;;;7.17;2.60;;;18.60;99.90;;;;;;1953657;72;25201;-90
2023/07/01 10:46:28;;;;;;;7.57;2.17;;;18.90;99.90;;;;;;1944058;72;25282;-91
2023/07/01 10:49:17;;;;;;;8.13;2.23;;;19.20;99.90;;;;;;1938043;72;25389;-91
2023/07/01 10:52:08;;;;;;;7.50;2.00;;;19.40;99.90;;;;;;1937749;72;25564;-90
2023/07/01 10:54:59;;;;;;;4.50;2.03;;;19.70;99.90;;;;;;1953284;72;25230;-91
2023/07/01 10:58:34;;;;;;;5.43;1.90;;;20.20;99.90;;;;;;1949930;72;25232;-92
2023/07/01 11:05:09;;;;;;;6.73;2.00;;;20.80;99.90;;;;;;1953353;72;26687;-91
2023/07/01 11:08:08;;;;;;;4.97;1.90;;;20.80;99.90;;;;;;1926072;73;25290;-91
2023/07/01 11:10:58;;;;;;;5.10;2.00;;;20.30;99.90;;;;;;1929012;73;25289;-91
2023/07/01 11:13:58;;;;;;;5.70;1.80;;;20.50;99.90;;;;;;1916600;73;25206;-91
2023/07/01 11:16:49;;;;;;;5.20;1.67;;;20.30;99.90;;;;;;1914093;73;25833;-91
2023/07/01 11:22:52;;;;;;;6.93;2.40;;;20.30;99.90;;;;;;1914927;73;25743;-91
2023/07/01 11:25:49;;;;;;;5.60;2.10;;;21.00;99.90;;;;;;1917201;73;25691;-91
2023/07/01 11:28:39;;;;;;;6.57;2.00;;;21.00;99.90;;;;;;1923799;73;25172;-91
2023/07/01 11:31:34;;;;;;;3.13;1.90;;;21.00;99.90;;;;;;1915259;73;25802;-91
2023/07/01 11:34:24;;;;;;;4.20;1.90;;;20.80;99.90;;;;;;1920274;73;25193;-91
2023/07/01 11:37:19;;;;;;;6.57;2.03;;;20.00;99.90;;;;;;1868144;76;25173;-91
2023/07/01 11:40:11;;;;;;;4.43;2.00;;;19.90;99.90;;;;;;1923701;73;25215;-91
2023/07/01 11:43:02;;;;;;;3.03;1.80;;;20.40;99.90;;;;;;1883084;75;25633;-91
2023/07/01 12:12:45;;;;;;;3.60;2.20;;;19.30;99.90;;;;;;1865204;75;27056;-90
2023/07/01 12:28:49;;;;;;;4.60;2.10;;;20.20;99.90;;;;;;1862395;75;27613;-92
2023/07/01 12:46:09;;;;;;;7.53;2.07;;;20.40;99.90;;;;;;1888235;74;27422;-90
2023/07/01 13:19:53;;;;;;;3.10;2.00;;;20.00;99.90;;;;;;1946781;72;26987;-91
2023/07/01 13:22:42;;;;;;;3.23;2.10;;;19.70;99.90;;;;;;1920692;72;25811;-91
2023/07/01 13:25:32;;;;;;;4.37;2.17;;;19.70;99.90;;;;;;1926086;72;25250;-91
2023/07/01 13:28:22;;;;;;;3.63;2.00;;;20.00;99.90;;;;;;1930422;72;25234;-92
2023/07/01 13:31:17;;;;;;;3.40;2.10;;;19.90;99.90;;;;;;1928202;72;25759;-92
2023/07/01 13:34:21;;;;;;;4.17;2.07;;;19.80;99.90;;;;;;1914426;73;25371;-91
2023/07/01 13:37:14;;;;;;;4.90;2.10;;;20.00;99.90;;;;;;1886744;73;25237;-91
2023/07/01 13:40:06;;;;;;;4.50;2.47;;;20.00;99.90;;;;;;1914019;73;25312;-91
2023/07/01 13:43:01;;;;;;;5.30;2.17;;;19.90;99.90;;;;;;1894331;75;25316;-91
2023/07/01 13:45:51;;;;;;;5.57;2.10;;;19.70;99.90;;;;;;1848664;74;25229;-91
2023/07/01 14:47:28;;;;;;;7.53;2.60;;;19.10;99.90;;;;;;1885136;74;27226;-92
2023/07/01 15:42:33;;;;;;;6.13;2.00;;;19.10;99.90;;;;;;1921894;72;27169;-92
2023/07/01 16:02:09;;;;;;;5.17;2.13;;;18.90;99.90;;;;;;1944638;72;25640;-92
2023/07/01 16:05:00;;;;;;;1.97;1.80;;;18.80;99.90;;;;;;1943424;72;25712;-91
2023/07/01 16:08:13;;;;;;;6.40;2.37;;;18.80;99.90;;;;;;1958423;72;25324;-91
2023/07/01 16:11:02;;;;;;;3.57;2.20;;;18.90;99.90;;;;;;1941186;72;25187;-91
2023/07/01 16:13:57;;;;;;;2.60;2.13;;;18.80;99.90;;;;;;1948042;72;25228;-91
2023/07/01 16:16:48;;;;;;;5.23;2.30;;;18.90;99.90;;;;;;1938556;72;25184;-91
2023/07/01 16:19:42;;;;;;;4.17;2.37;;;18.90;99.90;;;;;;1945704;72;25163;-91
2023/07/01 16:22:31;;;;;;;3.33;2.10;;;18.70;99.90;;;;;;1950919;72;25155;-91
2023/07/01 16:25:32;;;;;;;4.53;2.30;;;18.70;99.90;;;;;;1943478;72;25207;-92
2023/07/01 16:28:42;;;;;;;3.93;2.30;;;18.60;99.90;;;;;;1933772;72;25178;-91
2023/07/01 16:31:31;;;;;;;3.37;2.20;;;18.60;99.90;;;;;;1952655;72;25177;-91
2023/07/01 16:34:21;;;;;;;4.30;2.30;;;18.70;99.90;;;;;;1951477;72;25172;-91
2023/07/01 16:43:25;;;;;;;5.50;2.00;;;18.90;99.90;;;;;;1951308;72;26536;-90
2023/07/01 16:46:18;;;;;;;3.47;1.93;;;19.00;99.90;;;;;;1960599;72;25203;-91
2023/07/01 16:49:14;;;;;;;10.70;4.10;;;19.10;99.90;;;;;;1940533;72;25319;-91
2023/07/01 16:52:03;;;;;;;4.07;2.60;;;19.20;99.90;;;;;;1946555;72;25739;-91
2023/07/01 16:55:00;;;;;;;2.63;1.83;;;19.20;99.90;;;;;;1926731;72;25766;-91
2023/07/01 17:25:42;;;;;;;2.67;1.80;;;19.10;99.90;;;;;;1911089;74;26728;-91
2023/07/01 17:31:23;;;;;;;5.40;1.90;;;18.90;99.90;;;;;;1944168;72;27394;-91
2023/07/01 17:48:54;;;;;;;3.67;2.00;;;18.50;99.90;;;;;;1943182;70;26377;-91
2023/07/01 17:52:42;;;;;;;5.67;2.27;;;18.30;99.90;;;;;;1915942;73;25198;-91
2023/07/01 18:09:00;;;;;;;8.50;2.60;;;18.20;99.90;;;;;;2045833;69;26978;-91
2023/07/01 18:26:06;;;;;;;4.00;2.17;;;18.20;99.90;;;;;;1929082;74;26260;-91
2023/07/01 19:06:35;;;;;;;4.00;2.40;;;18.00;99.90;;;;;;1994341;71;26994;-90
2023/07/01 20:44:52;;;;;;;4.83;2.00;;;16.70;99.90;;;;;;1848429;75;27755;-91
2023/07/01 20:50:40;;;;;;;6.23;2.00;;;16.70;99.90;;;;;;1929144;74;27611;-90
2023/07/01 20:53:30;;;;;;;3.47;2.10;;;16.60;99.90;;;;;;1890885;74;25257;-90
2023/07/01 20:56:19;;;;;;;2.30;1.80;;;16.50;99.90;;;;;;1904088;75;25325;-90
2023/07/01 20:59:08;;;;;;;3.00;2.17;;;16.50;99.90;;;;;;1909813;74;25203;-90
2023/07/01 21:01:58;;;;;;;2.00;1.90;;;16.40;99.90;;;;;;1894474;73;25232;-90
2023/07/01 21:04:47;;;;;;;4.33;2.40;;;16.30;99.90;;;;;;1896624;74;25237;-90
2023/07/01 21:34:55;;;;;;;2.90;2.10;;;16.30;99.90;;;;;;1981085;71;27682;-90
2023/07/01 22:57:25;;;;;;;2.50;2.30;;;15.70;99.90;;;;;;1883569;74;25161;-91
